createdAt,value
2018-05-15T00:00:16.811Z,57.70
2018-05-15T00:01:22.167Z,57.90
2018-05-15T00:02:26.539Z,57.80
2018-05-15T00:03:30.864Z,57.80
2018-05-15T00:04:35.083Z,57.70
2018-05-15T00:05:39.340Z,57.70
2018-05-15T00:06:43.822Z,57.60
2018-05-15T00:07:48.165Z,57.60
2018-05-15T00:08:52.219Z,57.50
2018-05-15T00:09:56.699Z,57.60
2018-05-15T00:11:01.894Z,57.50
2018-05-15T00:12:06.285Z,57.50
2018-05-15T00:13:10.353Z,57.50
2018-05-15T00:14:15.040Z,57.50
2018-05-15T00:15:19.095Z,57.50
2018-05-15T00:16:23.336Z,57.60
2018-05-15T00:17:27.575Z,57.70
2018-05-15T00:18:32.619Z,57.70
2018-05-15T00:19:36.832Z,57.70
2018-05-15T00:20:41.079Z,57.70
2018-05-15T00:21:45.301Z,57.70
2018-05-15T00:22:50.005Z,57.70
2018-05-15T00:23:54.299Z,57.70
2018-05-15T00:24:58.555Z,57.70
2018-05-15T00:26:02.634Z,57.70
2018-05-15T00:27:07.051Z,57.70
2018-05-15T00:28:11.435Z,57.80
2018-05-15T00:29:15.529Z,57.70
2018-05-15T00:30:19.648Z,57.70
2018-05-15T00:31:23.731Z,57.70
2018-05-15T00:32:27.852Z,57.70
2018-05-15T00:33:31.935Z,57.80
2018-05-15T00:34:36.359Z,57.90
2018-05-15T00:35:40.567Z,57.80
2018-05-15T00:36:44.828Z,57.70
2018-05-15T00:37:49.043Z,57.70
2018-05-15T00:38:53.288Z,57.80
2018-05-15T00:39:57.539Z,57.70
2018-05-15T00:41:02.066Z,57.70
2018-05-15T00:42:06.292Z,57.70
2018-05-15T00:43:10.575Z,57.70
2018-05-15T00:44:14.850Z,57.70
2018-05-15T00:45:19.734Z,57.70
2018-05-15T00:46:24.388Z,57.70
2018-05-15T00:47:28.464Z,57.80
2018-05-15T00:48:32.600Z,57.80
2018-05-15T00:49:36.714Z,57.70
2018-05-15T00:50:40.971Z,57.80
2018-05-15T00:51:45.068Z,57.70
2018-05-15T00:52:49.164Z,57.70
2018-05-15T00:53:53.761Z,57.90
2018-05-15T00:55:06.800Z,57.80
2018-05-15T00:56:10.902Z,57.70
2018-05-15T00:57:14.990Z,57.70
2018-05-15T00:58:19.058Z,57.70
2018-05-15T00:59:23.198Z,57.70
2018-05-15T01:00:27.563Z,57.70
2018-05-15T01:01:31.791Z,57.70
2018-05-15T01:02:35.875Z,57.70
2018-05-15T01:03:40.072Z,57.60
2018-05-15T01:04:44.175Z,57.60
2018-05-15T01:05:48.271Z,57.60
2018-05-15T01:06:53.119Z,57.60
2018-05-15T01:07:57.233Z,57.60
2018-05-15T01:09:01.311Z,57.70
2018-05-15T01:10:05.371Z,57.60
2018-05-15T01:11:09.460Z,57.60
2018-05-15T01:12:13.588Z,57.40
2018-05-15T01:13:18.460Z,57.60
2018-05-15T01:14:22.543Z,57.60
2018-05-15T01:15:26.673Z,57.60
2018-05-15T01:16:30.785Z,57.40
2018-05-15T01:17:34.872Z,57.50
2018-05-15T01:18:39.102Z,57.50
2018-05-15T01:19:43.482Z,57.40
2018-05-15T01:20:47.712Z,57.40
2018-05-15T01:21:52.064Z,57.60
2018-05-15T01:22:56.182Z,57.50
2018-05-15T01:24:00.263Z,57.40
2018-05-15T01:25:04.596Z,57.40
2018-05-15T01:26:08.857Z,57.30
2018-05-15T01:27:13.103Z,57.40
2018-05-15T01:28:17.795Z,57.50
2018-05-15T01:29:22.099Z,57.40
2018-05-15T01:30:26.460Z,57.30
2018-05-15T01:31:30.569Z,57.20
2018-05-15T01:32:34.758Z,57.30
2018-05-15T01:33:38.991Z,57.30
2018-05-15T01:34:43.368Z,57.30
2018-05-15T01:35:47.598Z,57.30
2018-05-15T01:36:52.627Z,57.30
2018-05-15T01:37:56.868Z,57.30
2018-05-15T01:39:01.919Z,57.30
2018-05-15T01:40:06.303Z,57.30
2018-05-15T01:41:11.305Z,57.00
2018-05-15T01:42:16.315Z,57.20
2018-05-15T01:43:20.415Z,57.20
2018-05-15T01:44:24.480Z,57.10
2018-05-15T01:45:28.906Z,57.00
2018-05-15T01:46:33.068Z,57.20
2018-05-15T01:47:38.375Z,57.10
2018-05-15T01:48:42.496Z,57.10
2018-05-15T01:49:47.361Z,57.00
2018-05-15T01:50:51.471Z,56.90
2018-05-15T01:51:55.499Z,57.00
2018-05-15T01:53:00.068Z,57.00
2018-05-15T01:54:04.175Z,56.90
2018-05-15T01:55:08.264Z,56.90
2018-05-15T01:56:12.356Z,56.90
2018-05-15T01:57:16.420Z,56.90
2018-05-15T01:58:20.910Z,56.90
2018-05-15T01:59:25.453Z,56.90
2018-05-15T02:00:29.721Z,56.90
2018-05-15T02:01:34.400Z,56.90
2018-05-15T02:02:38.965Z,56.80
2018-05-15T02:03:43.624Z,56.80
2018-05-15T02:04:48.599Z,56.80
2018-05-15T02:08:00.496Z,56.80
2018-05-15T02:09:06.118Z,56.70
2018-05-15T02:10:11.356Z,56.70
2018-05-15T02:11:15.855Z,56.80
2018-05-15T02:12:20.740Z,57.40
2018-05-15T02:13:25.596Z,56.80
2018-05-15T02:14:29.833Z,56.80
2018-05-15T02:15:33.903Z,56.90
2018-05-15T02:16:37.957Z,56.90
2018-05-15T02:17:42.520Z,56.70
2018-05-15T02:18:47.350Z,56.80
2018-05-15T02:19:51.488Z,56.80
2018-05-15T02:20:56.386Z,56.80
2018-05-15T02:22:00.463Z,56.80
2018-05-15T02:23:04.567Z,56.70
2018-05-15T02:24:08.950Z,56.70
2018-05-15T02:25:13.008Z,56.80
2018-05-15T02:26:17.080Z,56.70
2018-05-15T02:27:21.129Z,56.70
2018-05-15T02:28:26.360Z,56.70
2018-05-15T02:29:30.947Z,56.70
2018-05-15T02:30:36.685Z,56.70
2018-05-15T02:31:40.947Z,56.70
2018-05-15T02:32:45.187Z,56.70
2018-05-15T02:33:49.429Z,56.60
2018-05-15T02:34:54.315Z,56.70
2018-05-15T02:35:58.932Z,56.20
2018-05-15T02:37:03.763Z,56.60
2018-05-15T02:38:08.672Z,56.70
2018-05-15T02:39:12.911Z,56.60
2018-05-15T02:40:17.900Z,56.60
2018-05-15T02:41:23.230Z,56.60
2018-05-15T02:42:27.470Z,56.50
2018-05-15T02:43:32.472Z,56.50
2018-05-15T02:44:36.718Z,56.50
2018-05-15T02:45:41.675Z,56.50
2018-05-15T02:46:45.896Z,56.40
2018-05-15T02:47:50.180Z,56.50
2018-05-15T02:48:54.428Z,56.50
2018-05-15T02:49:58.673Z,56.40
2018-05-15T02:51:02.956Z,56.40
2018-05-15T02:52:07.943Z,56.40
2018-05-15T02:53:12.167Z,56.40
2018-05-15T02:54:16.428Z,56.40
2018-05-15T02:55:20.665Z,56.40
2018-05-15T02:56:25.496Z,56.40
2018-05-15T02:57:29.715Z,56.90
2018-05-15T02:58:33.918Z,56.40
2018-05-15T02:59:38.164Z,56.40
2018-05-15T03:00:42.407Z,56.30
2018-05-15T03:01:46.734Z,56.30
2018-05-15T03:02:51.343Z,56.30
2018-05-15T03:03:55.727Z,56.30
2018-05-15T03:04:59.984Z,56.30
2018-05-15T03:06:04.987Z,56.20
2018-05-15T03:07:10.109Z,56.10
2018-05-15T03:10:10.325Z,56.10
2018-05-15T03:11:14.414Z,56.10
2018-05-15T03:12:18.531Z,56.10
2018-05-15T03:13:22.635Z,56.00
2018-05-15T03:14:26.702Z,56.00
2018-05-15T03:15:30.799Z,56.00
2018-05-15T03:16:35.317Z,56.00
2018-05-15T03:17:39.413Z,55.90
2018-05-15T03:18:43.727Z,55.90
2018-05-15T03:19:47.995Z,55.90
2018-05-15T03:20:52.830Z,55.90
2018-05-15T03:21:57.367Z,55.90
2018-05-15T03:23:01.459Z,55.80
2018-05-15T03:24:05.571Z,55.80
2018-05-15T03:25:09.874Z,55.90
2018-05-15T03:26:14.106Z,55.80
2018-05-15T03:27:18.534Z,55.80
2018-05-15T03:28:22.834Z,55.80
2018-05-15T03:29:27.026Z,55.70
2018-05-15T03:30:31.236Z,55.90
2018-05-15T03:31:35.455Z,55.90
2018-05-15T03:32:39.682Z,55.90
2018-05-15T03:33:43.921Z,55.80
2018-05-15T03:34:48.401Z,55.80
2018-05-15T03:35:53.414Z,55.80
2018-05-15T03:36:57.607Z,55.80
2018-05-15T03:38:01.975Z,55.80
2018-05-15T03:39:06.830Z,55.80
2018-05-15T03:40:11.015Z,55.70
2018-05-15T03:41:15.259Z,55.70
2018-05-15T03:42:19.506Z,55.70
2018-05-15T03:43:23.728Z,55.60
2018-05-15T03:44:28.061Z,55.60
2018-05-15T03:45:32.290Z,55.70
2018-05-15T03:46:37.222Z,55.70
2018-05-15T03:47:42.214Z,55.60
2018-05-15T03:48:46.586Z,55.60
2018-05-15T03:49:51.625Z,55.60
2018-05-15T03:50:55.877Z,55.60
2018-05-15T03:52:00.891Z,55.60
2018-05-15T03:53:05.182Z,55.60
2018-05-15T03:54:09.455Z,55.10
2018-05-15T03:55:13.635Z,55.60
2018-05-15T03:56:17.847Z,55.60
2018-05-15T03:57:22.039Z,55.60
2018-05-15T03:58:28.145Z,55.60
2018-05-15T03:59:32.410Z,55.60
2018-05-15T04:04:53.542Z,55.60
2018-05-15T04:08:09.022Z,55.60
2018-05-15T04:09:13.526Z,55.50
2018-05-15T04:10:17.723Z,55.40
2018-05-15T04:11:22.239Z,55.40
2018-05-15T04:12:26.491Z,55.50
2018-05-15T04:13:30.690Z,55.50
2018-05-15T04:14:35.106Z,55.50
2018-05-15T04:15:39.372Z,55.40
2018-05-15T04:16:43.555Z,55.50
2018-05-15T04:17:48.806Z,55.40
2018-05-15T04:18:52.980Z,55.40
2018-05-15T04:19:58.056Z,55.50
2018-05-15T04:21:02.455Z,55.50
2018-05-15T04:22:06.690Z,55.40
2018-05-15T04:23:10.862Z,55.40
2018-05-15T04:24:14.898Z,55.50
2018-05-15T04:25:19.293Z,55.50
2018-05-15T04:26:23.534Z,55.50
2018-05-15T04:27:27.786Z,56.00
2018-05-15T04:28:31.986Z,55.40
2018-05-15T04:29:36.165Z,55.40
2018-05-15T04:30:41.119Z,55.50
2018-05-15T04:31:45.320Z,55.50
2018-05-15T04:32:49.576Z,55.50
2018-05-15T04:33:54.082Z,55.40
2018-05-15T04:34:58.293Z,55.30
2018-05-15T04:36:03.290Z,55.40
2018-05-15T04:37:07.511Z,55.40
2018-05-15T04:38:11.704Z,55.70
2018-05-15T04:39:15.893Z,55.30
2018-05-15T04:40:20.091Z,55.30
2018-05-15T04:41:24.292Z,55.20
2018-05-15T04:42:28.418Z,55.20
2018-05-15T04:43:32.688Z,55.20
2018-05-15T04:44:37.181Z,55.30
2018-05-15T04:45:41.993Z,55.10
2018-05-15T04:46:46.794Z,55.20
2018-05-15T04:47:50.895Z,55.20
2018-05-15T04:48:54.931Z,55.10
2018-05-15T04:49:59.058Z,55.10
2018-05-15T04:51:03.331Z,55.10
2018-05-15T04:52:08.195Z,55.10
2018-05-15T04:53:12.222Z,55.70
2018-05-15T04:54:16.381Z,55.00
2018-05-15T04:55:20.827Z,55.10
2018-05-15T04:56:24.846Z,55.00
2018-05-15T04:57:28.870Z,55.00
2018-05-15T04:58:33.668Z,55.10
2018-05-15T04:59:37.727Z,55.10
2018-05-15T05:00:42.923Z,55.00
2018-05-15T05:01:46.950Z,55.00
2018-05-15T05:02:50.971Z,55.00
2018-05-15T05:03:55.334Z,55.00
2018-05-15T05:04:59.378Z,55.00
2018-05-15T05:06:03.443Z,54.90
2018-05-15T05:07:07.688Z,54.90
2018-05-15T05:08:12.062Z,54.90
2018-05-15T05:09:16.746Z,54.90
2018-05-15T05:10:21.175Z,54.90
2018-05-15T05:11:26.160Z,54.90
2018-05-15T05:12:30.626Z,54.80
2018-05-15T05:13:35.295Z,54.90
2018-05-15T05:14:39.483Z,54.90
2018-05-15T05:15:43.682Z,55.00
2018-05-15T05:16:47.855Z,54.90
2018-05-15T05:17:51.902Z,54.90
2018-05-15T05:18:56.214Z,54.90
2018-05-15T05:20:01.083Z,54.90
2018-05-15T05:21:05.934Z,54.90
2018-05-15T05:22:10.005Z,54.90
2018-05-15T05:23:14.213Z,54.80
2018-05-15T05:24:18.414Z,54.90
2018-05-15T05:25:22.618Z,55.00
2018-05-15T05:26:26.938Z,55.00
2018-05-15T05:27:31.130Z,55.00
2018-05-15T05:28:35.482Z,54.90
2018-05-15T05:29:39.688Z,55.00
2018-05-15T05:30:44.690Z,54.90
2018-05-15T05:31:49.109Z,55.00
2018-05-15T05:32:53.182Z,54.90
2018-05-15T05:33:57.315Z,54.90
2018-05-15T05:35:01.336Z,54.90
2018-05-15T05:36:05.663Z,54.90
2018-05-15T05:37:10.486Z,55.00
2018-05-15T05:38:15.285Z,54.90
2018-05-15T05:39:20.180Z,55.00
2018-05-15T05:40:24.474Z,54.90
2018-05-15T05:41:28.491Z,54.90
2018-05-15T05:42:32.952Z,55.00
2018-05-15T05:43:37.009Z,55.00
2018-05-15T05:44:41.148Z,54.90
2018-05-15T05:45:46.043Z,55.00
2018-05-15T05:46:50.556Z,55.00
2018-05-15T05:47:54.793Z,55.00
2018-05-15T05:48:59.781Z,55.00
2018-05-15T05:50:04.159Z,54.90
2018-05-15T05:51:08.376Z,54.90
2018-05-15T05:52:12.596Z,54.90
2018-05-15T05:53:16.881Z,54.90
2018-05-15T05:54:21.465Z,54.80
2018-05-15T05:55:25.773Z,55.00
2018-05-15T05:56:30.203Z,54.90
2018-05-15T05:57:35.348Z,54.90
2018-05-15T05:58:39.673Z,54.80
2018-05-15T05:59:44.313Z,54.80
2018-05-15T06:00:50.722Z,55.50
2018-05-15T06:01:55.547Z,54.80
2018-05-15T06:02:59.824Z,54.80
2018-05-15T06:04:04.045Z,54.80
2018-05-15T06:05:08.342Z,55.00
2018-05-15T06:06:12.399Z,54.90
2018-05-15T06:07:16.733Z,54.80
2018-05-15T06:08:20.774Z,54.80
2018-05-15T06:09:24.866Z,54.90
2018-05-15T06:10:29.177Z,54.80
2018-05-15T06:11:33.403Z,54.80
2018-05-15T06:12:37.726Z,54.90
2018-05-15T06:13:41.938Z,54.80
2018-05-15T06:14:46.986Z,54.90
2018-05-15T06:15:51.212Z,54.80
2018-05-15T06:16:55.265Z,54.80
2018-05-15T06:18:00.113Z,54.80
2018-05-15T06:19:04.134Z,54.90
2018-05-15T06:20:08.882Z,54.90
2018-05-15T06:21:12.971Z,54.80
2018-05-15T06:22:17.039Z,54.90
2018-05-15T06:23:21.114Z,54.70
2018-05-15T06:24:25.919Z,54.70
2018-05-15T06:25:30.750Z,54.90
2018-05-15T06:26:35.793Z,54.90
2018-05-15T06:27:40.090Z,54.80
2018-05-15T06:28:45.082Z,54.80
2018-05-15T06:29:49.283Z,54.80
2018-05-15T06:30:53.586Z,55.00
2018-05-15T06:31:57.812Z,54.90
2018-05-15T06:33:02.059Z,54.80
2018-05-15T06:34:06.275Z,54.80
2018-05-15T06:35:10.582Z,54.70
2018-05-15T06:36:14.795Z,54.80
2018-05-15T06:37:18.995Z,54.70
2018-05-15T06:38:23.486Z,54.70
2018-05-15T06:39:27.700Z,54.60
2018-05-15T06:40:32.011Z,54.80
2018-05-15T06:41:36.376Z,54.80
2018-05-15T06:42:41.509Z,54.80
2018-05-15T06:43:46.534Z,54.80
2018-05-15T06:44:51.587Z,54.80
2018-05-15T06:45:57.480Z,54.80
2018-05-15T06:47:02.487Z,54.80
2018-05-15T06:48:06.765Z,54.40
2018-05-15T06:49:11.038Z,55.00
2018-05-15T06:50:16.061Z,54.80
2018-05-15T06:51:20.851Z,54.80
2018-05-15T06:52:24.905Z,54.70
2018-05-15T06:53:29.026Z,54.70
2018-05-15T06:54:33.070Z,54.80
2018-05-15T06:55:37.187Z,54.80
2018-05-15T06:56:42.016Z,54.70
2018-05-15T06:57:46.890Z,54.80
2018-05-15T06:58:51.031Z,54.70
2018-05-15T06:59:56.022Z,54.80
2018-05-15T07:01:00.616Z,54.80
2018-05-15T07:02:04.867Z,54.80
2018-05-15T07:03:09.318Z,54.90
2018-05-15T07:04:13.663Z,54.80
2018-05-15T07:05:17.943Z,54.80
2018-05-15T07:06:22.197Z,54.80
2018-05-15T07:07:27.274Z,54.70
2018-05-15T07:08:31.543Z,54.60
2018-05-15T07:09:36.866Z,54.70
2018-05-15T07:10:41.922Z,54.70
2018-05-15T07:11:46.191Z,54.60
2018-05-15T07:12:51.255Z,54.70
2018-05-15T07:13:55.595Z,54.60
2018-05-15T07:14:59.885Z,54.70
2018-05-15T07:16:04.196Z,54.70
2018-05-15T07:17:08.531Z,54.70
2018-05-15T07:18:12.829Z,54.70
2018-05-15T07:19:17.326Z,54.60
2018-05-15T07:20:21.443Z,54.60
2018-05-15T07:21:25.658Z,54.70
2018-05-15T07:22:29.855Z,54.60
2018-05-15T07:23:34.167Z,54.60
2018-05-15T07:24:38.364Z,54.60
2018-05-15T07:25:42.939Z,54.70
2018-05-15T07:26:47.218Z,54.70
2018-05-15T07:27:52.227Z,54.70
2018-05-15T07:28:56.512Z,54.60
2018-05-15T07:30:00.796Z,54.60
2018-05-15T07:31:05.662Z,54.60
2018-05-15T07:32:10.779Z,54.80
2018-05-15T07:33:15.912Z,54.70
2018-05-15T07:34:20.147Z,54.70
2018-05-15T07:35:24.382Z,54.70
2018-05-15T07:36:28.645Z,54.70
2018-05-15T07:37:34.222Z,54.70
2018-05-15T07:38:38.459Z,54.60
2018-05-15T07:39:42.738Z,54.60
2018-05-15T07:40:47.034Z,54.70
2018-05-15T07:41:51.325Z,54.50
2018-05-15T07:42:56.376Z,54.60
2018-05-15T07:44:00.599Z,54.60
2018-05-15T07:45:04.906Z,54.50
2018-05-15T07:46:09.160Z,54.40
2018-05-15T07:47:14.302Z,54.50
2018-05-15T07:48:18.650Z,54.40
2018-05-15T07:49:23.058Z,54.50
2018-05-15T07:50:27.180Z,54.50
2018-05-15T07:51:32.021Z,54.50
2018-05-15T07:52:36.999Z,54.60
2018-05-15T07:53:42.496Z,54.50
2018-05-15T07:54:47.750Z,54.50
2018-05-15T07:55:53.365Z,54.60
2018-05-15T07:56:58.568Z,54.60
2018-05-15T07:58:03.955Z,54.50
2018-05-15T07:59:09.327Z,54.60
2018-05-15T08:00:52.434Z,54.60
2018-05-15T08:01:59.434Z,54.60
2018-05-15T08:03:05.670Z,54.60
2018-05-15T08:04:10.854Z,54.50
2018-05-15T08:05:16.359Z,54.60
2018-05-15T08:06:22.355Z,54.60
2018-05-15T08:07:28.492Z,54.50
2018-05-15T08:08:34.197Z,54.60
2018-05-15T08:09:39.717Z,54.50
2018-05-15T08:10:45.303Z,54.60
2018-05-15T08:11:50.746Z,54.60
2018-05-15T08:12:56.691Z,54.50
2018-05-15T08:14:02.878Z,54.40
2018-05-15T08:15:09.158Z,54.40
2018-05-15T09:20:07.016Z,53.50
2018-05-15T09:21:11.196Z,53.50
2018-05-15T09:22:15.277Z,53.50
2018-05-15T09:23:19.456Z,53.50
2018-05-15T09:24:23.495Z,53.50
2018-05-15T09:25:28.822Z,53.40
2018-05-15T09:26:33.828Z,53.50
2018-05-15T09:27:38.040Z,53.60
2018-05-15T09:28:43.016Z,53.50
2018-05-15T09:29:47.117Z,53.40
2018-05-15T09:30:51.560Z,53.40
2018-05-15T09:31:55.618Z,53.40
2018-05-15T09:32:59.637Z,53.50
2018-05-15T09:34:03.739Z,53.40
2018-05-15T09:35:07.861Z,54.00
2018-05-15T09:36:12.090Z,53.30
2018-05-15T09:37:16.362Z,53.30
2018-05-15T09:38:20.787Z,53.20
2018-05-15T09:39:24.946Z,53.20
2018-05-15T09:40:29.508Z,53.20
2018-05-15T09:41:33.725Z,53.30
2018-05-15T09:42:37.879Z,53.10
2018-05-15T09:43:51.871Z,53.10
2018-05-15T09:44:55.968Z,53.10
2018-05-15T09:46:03.060Z,53.10
2018-05-15T09:47:07.439Z,53.00
2018-05-15T09:48:11.802Z,53.00
2018-05-15T09:49:16.142Z,53.00
2018-05-15T09:50:21.040Z,52.60
2018-05-15T09:51:25.382Z,53.10
2018-05-15T09:52:29.654Z,53.10
2018-05-15T09:53:34.155Z,53.10
2018-05-15T09:54:38.447Z,53.00
2018-05-15T09:55:43.179Z,53.00
2018-05-15T09:56:47.696Z,53.10
2018-05-15T09:57:52.751Z,53.10
2018-05-15T09:58:56.959Z,53.10
2018-05-15T10:00:01.176Z,53.10
2018-05-15T10:01:05.218Z,53.00
2018-05-15T10:02:09.739Z,53.00
2018-05-15T10:03:14.688Z,53.10
2018-05-15T10:04:18.806Z,53.00
2018-05-15T10:05:23.100Z,53.20
2018-05-15T10:06:27.142Z,53.20
2018-05-15T10:07:32.191Z,53.20
2018-05-15T10:08:36.536Z,53.00
2018-05-15T10:09:40.562Z,53.10
2018-05-15T10:10:44.927Z,53.00
2018-05-15T10:11:49.927Z,52.90
2018-05-15T10:12:54.927Z,52.90
2018-05-15T10:13:59.137Z,52.90
2018-05-15T10:15:04.460Z,52.80
2018-05-15T10:16:08.940Z,52.80
2018-05-15T10:17:13.136Z,52.90
2018-05-15T10:18:27.548Z,52.90
2018-05-15T10:19:32.363Z,52.90
2018-05-15T10:23:46.655Z,52.70
2018-05-15T10:25:01.109Z,52.90
2018-05-15T10:26:06.386Z,52.90
2018-05-15T10:27:11.434Z,52.90
2018-05-15T10:28:15.636Z,52.80
2018-05-15T10:29:19.720Z,52.90
2018-05-15T10:30:24.578Z,52.80
2018-05-15T10:31:28.985Z,52.70
2018-05-15T10:33:41.919Z,53.30
2018-05-15T10:34:45.936Z,52.60
2018-05-15T10:35:49.987Z,52.60
2018-05-15T10:36:54.186Z,52.50
2018-05-15T10:37:58.383Z,53.20
2018-05-15T10:39:02.646Z,52.60
2018-05-15T10:40:06.827Z,52.60
2018-05-15T10:41:11.027Z,52.70
2018-05-15T10:42:15.226Z,52.60
2018-05-15T10:43:19.471Z,52.60
2018-05-15T10:44:23.698Z,52.40
2018-05-15T10:45:28.691Z,52.60
2018-05-15T10:46:33.674Z,52.50
2018-05-15T10:47:37.932Z,52.50
2018-05-15T10:48:41.976Z,52.50
2018-05-15T10:49:46.030Z,52.50
2018-05-15T10:50:50.127Z,52.50
2018-05-15T10:51:54.967Z,52.40
2018-05-15T10:52:59.048Z,52.30
2018-05-15T10:54:03.128Z,52.50
2018-05-15T10:55:07.389Z,52.40
2018-05-15T10:56:12.213Z,52.40
2018-05-15T10:57:17.227Z,52.40
2018-05-15T10:58:22.061Z,52.30
2018-05-15T10:59:26.902Z,52.20
2018-05-15T11:00:30.943Z,52.20
2018-05-15T11:01:35.049Z,52.00
2018-05-15T11:02:39.166Z,52.00
2018-05-15T11:03:43.216Z,52.00
2018-05-15T11:04:47.455Z,52.10
2018-05-15T11:05:51.532Z,52.10
2018-05-15T11:06:55.832Z,52.20
2018-05-15T11:08:00.074Z,52.20
2018-05-15T11:09:04.818Z,52.30
2018-05-15T11:10:10.425Z,52.30
2018-05-15T11:11:14.647Z,52.30
2018-05-15T11:12:19.661Z,52.20
2018-05-15T11:13:24.242Z,52.20
2018-05-15T11:14:28.452Z,52.10
2018-05-15T11:15:32.549Z,52.20
2018-05-15T11:16:36.710Z,52.30
2018-05-15T11:17:40.777Z,52.10
2018-05-15T11:18:44.877Z,52.00
2018-05-15T11:22:03.979Z,51.90
2018-05-15T11:24:24.411Z,52.00
2018-05-15T11:25:28.712Z,52.10
2018-05-15T11:26:33.003Z,52.00
2018-05-15T11:27:37.988Z,51.90
2018-05-15T11:28:42.259Z,51.90
2018-05-15T11:29:46.482Z,51.90
2018-05-15T11:30:50.715Z,51.90
2018-05-15T11:31:55.216Z,52.00
2018-05-15T11:32:59.523Z,52.00
2018-05-15T11:34:03.846Z,51.90
2018-05-15T11:35:08.164Z,52.00
2018-05-15T11:36:13.336Z,52.00
2018-05-15T11:37:20.566Z,52.00
2018-05-15T11:38:26.119Z,52.00
2018-05-15T11:39:31.107Z,52.00
2018-05-15T11:40:35.722Z,52.00
2018-05-15T11:41:40.122Z,51.90
2018-05-15T11:42:44.246Z,51.80
2018-05-15T11:43:49.261Z,51.90
2018-05-15T11:44:53.551Z,51.90
2018-05-15T11:45:59.351Z,51.90
2018-05-15T11:47:03.569Z,51.90
2018-05-15T11:48:07.917Z,51.80
2018-05-15T11:49:13.710Z,52.00
2018-05-15T11:50:18.283Z,51.50
2018-05-15T11:51:22.767Z,52.00
2018-05-15T11:52:27.916Z,52.10
2018-05-15T11:53:31.714Z,52.10
2018-05-15T11:54:35.971Z,52.10
2018-05-15T11:55:42.714Z,52.20
2018-05-15T11:56:46.048Z,52.00
2018-05-15T11:57:50.275Z,52.00
2018-05-15T12:00:03.807Z,51.80
2018-05-15T12:01:08.086Z,51.80
2018-05-15T12:02:12.968Z,51.70
2018-05-15T12:03:18.020Z,51.80
2018-05-15T12:04:22.225Z,51.80
2018-05-15T12:05:26.672Z,51.90
2018-05-15T12:06:31.838Z,51.80
2018-05-15T12:07:36.858Z,51.90
2018-05-15T12:08:41.100Z,51.90
2018-05-15T12:09:45.318Z,52.00
2018-05-15T12:10:49.607Z,52.10
2018-05-15T12:11:53.652Z,52.10
2018-05-15T12:12:58.493Z,52.00
2018-05-15T12:14:08.152Z,52.00
2018-05-15T12:15:12.243Z,52.10
2018-05-15T12:16:16.288Z,52.00
2018-05-15T12:17:20.411Z,51.90
2018-05-15T12:18:25.348Z,51.80
2018-05-15T12:19:29.671Z,51.80
2018-05-15T12:20:33.702Z,51.80
2018-05-15T12:21:37.850Z,51.90
2018-05-15T12:22:42.858Z,52.00
2018-05-15T12:23:46.901Z,52.10
2018-05-15T12:24:51.034Z,51.90
2018-05-15T12:25:55.391Z,51.90
2018-05-15T12:27:00.195Z,51.90
2018-05-15T12:28:05.065Z,51.90
2018-05-15T12:29:09.124Z,51.90
2018-05-15T12:30:14.007Z,52.00
2018-05-15T12:31:18.153Z,52.00
2018-05-15T12:32:23.046Z,51.80
2018-05-15T12:33:27.094Z,51.80
2018-05-15T12:34:31.196Z,51.80
2018-05-15T12:35:35.518Z,51.80
2018-05-15T12:36:39.703Z,52.40
2018-05-15T12:37:43.759Z,51.80
2018-05-15T12:38:47.818Z,52.40
2018-05-15T12:39:51.874Z,51.90
2018-05-15T12:40:56.120Z,51.90
2018-05-15T12:42:00.499Z,51.90
2018-05-15T12:43:18.505Z,51.90
2018-05-15T12:44:23.579Z,51.90
2018-05-15T12:45:27.833Z,51.90
2018-05-15T12:46:32.246Z,52.10
2018-05-15T12:47:36.564Z,51.90
2018-05-15T12:48:41.039Z,52.00
2018-05-15T12:49:46.212Z,52.10
2018-05-15T12:50:50.518Z,52.10
2018-05-15T12:51:55.519Z,52.00
2018-05-15T12:52:59.695Z,52.00
2018-05-15T12:54:03.979Z,52.10
2018-05-15T12:55:08.233Z,52.10
2018-05-15T12:56:12.446Z,51.90
2018-05-15T12:57:16.730Z,51.80
2018-05-15T12:58:20.915Z,51.80
2018-05-15T12:59:25.198Z,51.80
2018-05-15T13:00:30.151Z,51.80
2018-05-15T13:01:34.406Z,51.80
2018-05-15T13:03:40.770Z,51.50
2018-05-15T13:04:45.743Z,51.90
2018-05-15T13:05:49.950Z,51.90
2018-05-15T13:06:54.183Z,51.90
2018-05-15T13:07:58.385Z,51.80
2018-05-15T13:09:03.266Z,51.80
2018-05-15T13:10:07.443Z,51.80
2018-05-15T13:11:12.392Z,51.70
2018-05-15T13:12:16.670Z,51.70
2018-05-15T13:13:21.624Z,52.30
2018-05-15T13:14:25.827Z,51.70
2018-05-15T13:15:30.105Z,51.60
2018-05-15T13:16:34.965Z,51.70
2018-05-15T13:17:39.137Z,51.70
2018-05-15T13:18:43.434Z,51.70
2018-05-15T13:19:47.984Z,51.70
2018-05-15T13:20:52.200Z,51.70
2018-05-15T13:21:56.430Z,51.60
2018-05-15T13:23:00.650Z,51.70
2018-05-15T13:24:05.733Z,51.70
2018-05-15T13:25:09.943Z,51.70
2018-05-15T13:26:14.443Z,51.70
2018-05-15T13:27:18.684Z,51.70
2018-05-15T13:28:22.931Z,51.80
2018-05-15T13:29:27.202Z,51.90
2018-05-15T13:30:32.222Z,51.90
2018-05-15T13:31:36.486Z,51.90
2018-05-15T13:32:40.705Z,51.90
2018-05-15T13:33:44.766Z,51.80
2018-05-15T13:34:48.815Z,51.90
2018-05-15T13:35:53.032Z,52.00
2018-05-15T13:36:57.523Z,52.10
2018-05-15T13:38:01.734Z,52.00
2018-05-15T13:39:06.462Z,52.00
2018-05-15T13:40:10.761Z,52.10
2018-05-15T13:41:14.994Z,52.10
2018-05-15T13:42:19.188Z,52.10
2018-05-15T13:43:23.564Z,52.20
2018-05-15T13:44:27.638Z,52.30
2018-05-15T13:45:32.718Z,52.10
2018-05-15T13:46:37.255Z,52.10
2018-05-15T13:47:42.281Z,52.20
2018-05-15T13:48:47.289Z,52.10
2018-05-15T13:49:51.559Z,52.20
2018-05-15T13:50:55.880Z,52.30
2018-05-15T13:52:00.101Z,52.30
2018-05-15T13:53:04.186Z,52.40
2018-05-15T13:54:08.444Z,52.50
2018-05-15T13:55:13.850Z,52.60
2018-05-15T13:56:18.919Z,52.60
2018-05-15T13:57:23.263Z,52.50
2018-05-15T13:58:27.514Z,52.70
2018-05-15T13:59:32.523Z,52.50
2018-05-15T14:00:37.599Z,52.60
2018-05-15T14:01:42.885Z,52.60
2018-05-15T14:02:47.891Z,52.60
2018-05-15T14:03:52.167Z,52.50
2018-05-15T14:04:57.408Z,52.60
2018-05-15T14:06:01.731Z,52.70
2018-05-15T14:07:06.112Z,52.60
2018-05-15T14:08:10.498Z,52.50
2018-05-15T14:09:14.769Z,52.20
2018-05-15T14:11:01.099Z,52.20
2018-05-15T14:12:05.525Z,52.20
2018-05-15T14:13:09.759Z,52.10
2018-05-15T14:14:13.823Z,52.00
2018-05-15T14:15:17.903Z,52.00
2018-05-15T14:16:21.935Z,52.10
2018-05-15T14:17:25.971Z,52.00
2018-05-15T14:18:30.046Z,52.00
2018-05-15T14:19:34.151Z,52.10
2018-05-15T14:20:39.354Z,52.20
2018-05-15T14:21:43.417Z,52.20
2018-05-15T14:22:48.341Z,52.30
2018-05-15T14:23:53.306Z,52.60
2018-05-15T14:24:57.452Z,52.60
2018-05-15T14:26:01.538Z,52.60
2018-05-15T14:27:05.634Z,52.50
2018-05-15T14:28:09.664Z,52.50
2018-05-15T14:29:13.710Z,52.80
2018-05-15T14:30:17.764Z,52.20
2018-05-15T14:31:22.941Z,51.80
2018-05-15T14:32:27.014Z,51.80
2018-05-15T14:33:31.938Z,52.10
2018-05-15T14:34:36.042Z,52.10
2018-05-15T14:35:40.875Z,52.10
2018-05-15T14:36:45.036Z,52.20
2018-05-15T14:37:49.546Z,52.20
2018-05-15T14:38:53.651Z,52.30
2018-05-15T14:39:57.714Z,52.40
2018-05-15T14:41:01.760Z,52.40
2018-05-15T14:44:14.079Z,52.30
2018-05-15T14:45:18.886Z,52.30
2018-05-15T14:46:23.810Z,52.20
2018-05-15T14:47:28.830Z,52.20
2018-05-15T14:48:33.255Z,52.30
2018-05-15T14:49:38.746Z,52.30
2018-05-15T14:50:51.750Z,52.30
2018-05-15T14:51:55.966Z,52.10
2018-05-15T14:53:00.164Z,51.90
2018-05-15T14:54:07.534Z,52.00
2018-05-15T14:55:11.806Z,52.20
2018-05-15T14:56:16.790Z,52.10
2018-05-15T14:57:20.958Z,52.10
2018-05-15T14:58:25.055Z,51.90
2018-05-15T14:59:29.147Z,51.90
2018-05-15T15:00:33.264Z,52.10
2018-05-15T15:01:37.434Z,52.00
2018-05-15T15:02:42.292Z,51.90
2018-05-15T15:03:47.182Z,51.70
2018-05-15T15:04:51.979Z,51.60
2018-05-15T15:05:56.041Z,51.60
2018-05-15T15:07:00.924Z,51.60
2018-05-15T15:08:06.274Z,51.50
2018-05-15T15:09:10.519Z,51.50
2018-05-15T15:10:14.753Z,52.20
2018-05-15T15:11:19.744Z,51.70
2018-05-15T15:12:23.956Z,51.70
2018-05-15T15:13:28.168Z,51.70
2018-05-15T15:14:32.427Z,51.60
2018-05-15T15:15:36.624Z,51.50
2018-05-15T15:16:40.927Z,52.00
2018-05-15T15:17:45.755Z,51.40
2018-05-15T15:18:49.814Z,51.40